TimeEST,TemperatureF,Dew PointF,Humidity,Sea Level PressureIn,VisibilityMPH,Wind Direction,Wind SpeedMPH,Gust SpeedMPH,PrecipitationIn,Events,Conditions,WindDirDegrees,DateUTC
12:15 AM,30.2,26.6,86,30.10,10.0,Calm,Calm,-,N/A,,Clear,0,2013-02-21 05:15:00
12:35 AM,33.8,24.8,70,30.12,10.0,WNW,3.5,-,N/A,,Clear,290,2013-02-21 05:35:00
12:55 AM,33.8,24.8,70,30.12,10.0,North,3.5,-,N/A,,Clear,350,2013-02-21 05:55:00
1:15 AM,35.6,21.2,56,30.14,10.0,Calm,Calm,-,N/A,,Clear,0,2013-02-21 06:15:00
1:35 AM,33.8,23.0,65,30.13,10.0,Calm,Calm,-,N/A,,Clear,0,2013-02-21 06:35:00
1:55 AM,32.0,24.8,75,30.13,10.0,Calm,Calm,-,N/A,,Clear,0,2013-02-21 06:55:00
2:15 AM,28.4,23.0,80,30.13,10.0,Calm,Calm,-,N/A,,Clear,0,2013-02-21 07:15:00
2:35 AM,30.2,24.8,80,30.13,10.0,Calm,Calm,-,N/A,,Clear,0,2013-02-21 07:35:00
2:55 AM,28.4,23.0,80,30.13,10.0,Calm,Calm,-,N/A,,Clear,0,2013-02-21 07:55:00
3:15 AM,28.4,23.0,80,30.14,10.0,Calm,Calm,-,N/A,,Clear,0,2013-02-21 08:15:00
3:35 AM,26.6,23.0,86,30.14,10.0,Calm,Calm,-,N/A,,Clear,0,2013-02-21 08:35:00
3:55 AM,26.6,21.2,80,30.15,10.0,Calm,Calm,-,N/A,,Clear,0,2013-02-21 08:55:00
4:15 AM,26.6,21.2,80,30.15,10.0,NW,3.5,-,N/A,,Clear,320,2013-02-21 09:15:00
4:35 AM,30.2,19.4,64,30.15,10.0,NNW,3.5,-,N/A,,Clear,330,2013-02-21 09:35:00
4:55 AM,30.2,17.6,60,30.16,10.0,NW,3.5,-,N/A,,Clear,310,2013-02-21 09:55:00
5:15 AM,30.2,19.4,64,30.18,10.0,WNW,3.5,-,N/A,,Clear,290,2013-02-21 10:15:00
5:35 AM,30.2,17.6,60,30.18,10.0,Calm,Calm,-,N/A,,Clear,0,2013-02-21 10:35:00
5:55 AM,30.2,17.6,60,30.18,10.0,Calm,Calm,-,N/A,,Clear,0,2013-02-21 10:55:00
6:15 AM,30.2,17.6,60,30.18,10.0,NW,3.5,-,N/A,,Clear,320,2013-02-21 11:15:00
6:55 AM,30.2,17.6,60,30.19,10.0,NW,3.5,-,N/A,,Clear,320,2013-02-21 11:55:00
7:15 AM,30.2,17.6,60,30.20,10.0,NNW,4.6,-,N/A,,Clear,330,2013-02-21 12:15:00
7:35 AM,30.2,19.4,64,30.20,10.0,NNW,3.5,-,N/A,,Clear,330,2013-02-21 12:35:00
7:55 AM,33.8,21.2,60,30.22,10.0,NNW,5.8,-,N/A,,Clear,340,2013-02-21 12:55:00
8:15 AM,35.6,21.2,56,30.23,10.0,North,6.9,-,N/A,,Clear,350,2013-02-21 13:15:00
8:35 AM,35.6,24.8,65,30.22,10.0,NNE,8.1,-,N/A,,Clear,20,2013-02-21 13:35:00
8:55 AM,37.4,24.8,60,30.23,10.0,North,6.9,-,N/A,,Clear,10,2013-02-21 13:55:00
9:15 AM,39.2,24.8,56,30.22,10.0,North,6.9,-,N/A,,Clear,360,2013-02-21 14:15:00
9:35 AM,39.2,21.2,49,30.23,10.0,North,6.9,-,N/A,,Clear,10,2013-02-21 14:35:00
9:55 AM,41.0,19.4,42,30.23,10.0,North,6.9,-,N/A,,Clear,10,2013-02-21 14:55:00
10:15 AM,42.8,19.4,39,30.22,10.0,NNW,8.1,-,N/A,,Clear,330,2013-02-21 15:15:00
10:35 AM,42.8,19.4,39,30.22,10.0,NW,5.8,-,N/A,,Clear,310,2013-02-21 15:35:00
10:55 AM,44.6,21.2,39,30.20,10.0,North,5.8,-,N/A,,Clear,10,2013-02-21 15:55:00
11:15 AM,46.4,23.0,40,30.21,10.0,NNW,4.6,-,N/A,,Clear,330,2013-02-21 16:15:00
11:35 AM,46.4,19.4,34,30.20,10.0,NW,6.9,-,N/A,,Clear,320,2013-02-21 16:35:00
11:55 AM,46.4,21.2,37,30.20,10.0,NW,3.5,-,N/A,,Clear,310,2013-02-21 16:55:00
12:15 PM,48.2,21.2,34,30.19,10.0,NW,6.9,-,N/A,,Clear,310,2013-02-21 17:15:00
12:35 PM,50.0,19.4,30,30.18,10.0,North,6.9,-,N/A,,Clear,350,2013-02-21 17:35:00
12:55 PM,50.0,19.4,30,30.18,10.0,West,6.9,-,N/A,,Clear,280,2013-02-21 17:55:00
1:15 PM,51.8,21.2,30,30.17,10.0,WNW,5.8,-,N/A,,Clear,290,2013-02-21 18:15:00
1:35 PM,51.8,19.4,28,30.16,10.0,NW,8.1,-,N/A,,Clear,310,2013-02-21 18:35:00
1:55 PM,53.6,19.4,26,30.15,10.0,WSW,8.1,-,N/A,,Clear,250,2013-02-21 18:55:00
2:15 PM,53.6,19.4,26,30.14,10.0,West,6.9,-,N/A,,Clear,260,2013-02-21 19:15:00
2:35 PM,53.6,17.6,24,30.14,10.0,West,6.9,-,N/A,,Clear,280,2013-02-21 19:35:00
2:55 PM,53.6,19.4,26,30.13,10.0,NNW,5.8,-,N/A,,Clear,330,2013-02-21 19:55:00
3:15 PM,53.6,17.6,24,30.13,10.0,WNW,8.1,-,N/A,,Clear,290,2013-02-21 20:15:00
3:35 PM,53.6,19.4,26,30.12,10.0,WNW,4.6,-,N/A,,Clear,300,2013-02-21 20:35:00
3:55 PM,53.6,19.4,26,30.12,10.0,NNW,4.6,-,N/A,,Clear,330,2013-02-21 20:55:00
4:15 PM,53.6,19.4,26,30.13,10.0,NNW,4.6,-,N/A,,Clear,330,2013-02-21 21:15:00
4:35 PM,53.6,19.4,26,30.13,10.0,NW,6.9,-,N/A,,Clear,310,2013-02-21 21:35:00
4:55 PM,53.6,19.4,26,30.13,10.0,WNW,4.6,-,N/A,,Clear,290,2013-02-21 21:55:00
5:15 PM,53.6,19.4,26,30.14,10.0,WNW,4.6,-,N/A,,Clear,290,2013-02-21 22:15:00
5:35 PM,51.8,19.4,28,30.15,10.0,Calm,Calm,-,N/A,,Clear,0,2013-02-21 22:35:00
5:55 PM,48.2,21.2,34,30.16,10.0,West,3.5,-,N/A,,Clear,280,2013-02-21 22:55:00
6:15 PM,46.4,24.8,43,30.16,10.0,Calm,Calm,-,N/A,,Clear,0,2013-02-21 23:15:00
6:35 PM,42.8,26.6,53,30.17,10.0,Calm,Calm,-,N/A,,Clear,0,2013-02-21 23:35:00
6:55 PM,39.2,28.4,65,30.17,10.0,Calm,Calm,-,N/A,,Clear,0,2013-02-21 23:55:00
7:15 PM,39.2,28.4,65,30.19,10.0,Calm,Calm,-,N/A,,Clear,0,2013-02-22 00:15:00
7:35 PM,39.2,30.2,70,30.21,10.0,Calm,Calm,-,N/A,,Clear,0,2013-02-22 00:35:00
7:55 PM,39.2,28.4,65,30.21,10.0,Calm,Calm,-,N/A,,Clear,0,2013-02-22 00:55:00
8:15 PM,39.2,30.2,70,30.22,10.0,Calm,Calm,-,N/A,,Clear,0,2013-02-22 01:15:00
8:35 PM,39.2,30.2,70,30.22,10.0,NNE,5.8,-,N/A,,Clear,30,2013-02-22 01:35:00
8:55 PM,41.0,28.4,61,30.22,10.0,NNE,6.9,-,N/A,,Clear,30,2013-02-22 01:55:00
9:15 PM,41.0,26.6,57,30.23,10.0,NNE,5.8,-,N/A,,Clear,30,2013-02-22 02:15:00
9:35 PM,41.0,26.6,57,30.22,10.0,NE,8.1,-,N/A,,Clear,50,2013-02-22 02:35:00
9:55 PM,42.8,26.6,53,30.23,10.0,NE,8.1,-,N/A,,Clear,40,2013-02-22 02:55:00
10:15 PM,42.8,24.8,49,30.23,10.0,ENE,8.1,-,N/A,,Clear,60,2013-02-22 03:15:00
10:35 PM,42.8,24.8,49,30.24,10.0,ENE,8.1,-,N/A,,Clear,60,2013-02-22 03:35:00
10:55 PM,41.0,24.8,53,30.26,10.0,East,4.6,-,N/A,,Clear,80,2013-02-22 03:55:00
11:15 PM,39.2,24.8,56,30.27,10.0,NNE,6.9,-,N/A,,Clear,20,2013-02-22 04:15:00
11:35 PM,37.4,24.8,60,30.26,10.0,NE,5.8,-,N/A,,Clear,40,2013-02-22 04:35:00
11:55 PM,39.2,26.6,61,30.25,10.0,NE,10.4,-,N/A,,Clear,50,2013-02-22 04:55:00